Metar Aviation Weather Data        EIME Baldonnel Military Airfield
Temperature
15°C Temperature
13°C Dewpoint
88% Humidity



Wind
17 KM/H
10 MPH
4 M/S
9 KTS



280°
W
Current Conditions

Mostly Cloudy Mostly Cloudy
Pressure 1032 (hPa) - 30.47 (inHg)
Visibility 30 (mile) - 48 (km)
Airport
Airport-code EIME

Location: Baldonnel Military Airfield
Distance: 62 (km)

Metar:
METAR EIME 070730Z 28009KT 9999 BKN010 BKN012 15/13 Q1032

Time: 07-07-2022 08:30 IST